Odon, Indiana
Current Conditions -  °F | °C
As of 7:15 PM on Tuesday 27 Jan 2015 (Local Time) from KDCY Reporting Station
Overcast Overcast  
Wind Chill: 25°   Ceiling: 1800
Heat Index: 32°   Visibility: 10mi
Dew Point: 27°   Wind: 7mph
Humidity: 84%   Direction: 350°N
Pressure: 30.24"   Gusts: NA
Location:  38.84°N, 86.99°W
Report Text: KDCY 280115Z AUTO 35006KT 10SM SCT012 OVC018 00/M03 A3024 RMK AO2 T10021026
Loading
Personal Weather Stations






























Interactive Weather Map New forecast layout! Learn more

10-Day Weather Forecast

Advertisements
Track Severe Weather on mobile